createdAt,value
2019-05-28T00:00:32.346Z,51.60
2019-05-28T00:03:02.135Z,51.57
2019-05-28T00:05:31.847Z,51.97
2019-05-28T00:08:01.555Z,51.90
2019-05-28T00:10:31.211Z,51.70
2019-05-28T00:13:00.843Z,51.80
2019-05-28T00:15:30.571Z,51.27
2019-05-28T00:18:00.231Z,51.47
2019-05-28T00:20:29.923Z,51.60
2019-05-28T00:22:59.553Z,51.57
2019-05-28T00:25:29.506Z,51.40
2019-05-28T00:27:59.199Z,51.60
2019-05-28T00:30:28.837Z,51.27
2019-05-28T00:32:58.544Z,52.00
2019-05-28T00:35:28.253Z,51.37
2019-05-28T00:37:57.896Z,51.60
2019-05-28T00:40:27.628Z,51.97
2019-05-28T00:42:57.334Z,51.37
2019-05-28T00:45:27.287Z,51.67
2019-05-28T00:47:57.075Z,51.40
2019-05-28T00:50:26.723Z,51.27
2019-05-28T00:52:57.419Z,51.63
2019-05-28T00:55:28.190Z,51.23
2019-05-28T00:57:58.081Z,51.30
2019-05-28T01:00:47.779Z,51.40
2019-05-28T01:03:18.020Z,51.53
2019-05-28T01:05:47.798Z,51.70
2019-05-28T01:08:17.642Z,51.53
2019-05-28T01:10:47.338Z,51.37
2019-05-28T01:13:17.049Z,51.33
2019-05-28T01:15:46.703Z,51.77
2019-05-28T01:18:16.358Z,51.43
2019-05-28T01:20:46.085Z,51.83
2019-05-28T01:23:15.718Z,51.57
2019-05-28T01:25:45.374Z,51.57
2019-05-28T01:28:15.032Z,51.63
2019-05-28T01:30:54.836Z,51.93
2019-05-28T01:33:16.088Z,51.87
2019-05-28T01:35:45.719Z,51.53
2019-05-28T01:38:15.368Z,51.53
2019-05-28T01:40:45.086Z,51.40
2019-05-28T01:43:14.726Z,51.37
2019-05-28T01:45:44.398Z,52.10
2019-05-28T01:48:14.022Z,51.87
2019-05-28T01:50:43.752Z,51.33
2019-05-28T01:53:13.431Z,52.03
2019-05-28T01:55:43.123Z,51.90
2019-05-28T01:58:12.762Z,51.60
2019-05-28T02:00:42.416Z,51.60
2019-05-28T02:03:12.060Z,51.90
2019-05-28T02:05:41.707Z,51.30
2019-05-28T02:08:11.326Z,51.70
2019-05-28T02:10:40.970Z,51.87
2019-05-28T02:13:10.612Z,51.70
2019-05-28T02:15:40.327Z,51.40
2019-05-28T02:18:09.976Z,51.60
2019-05-28T02:20:39.612Z,51.70
2019-05-28T02:23:09.319Z,51.40
2019-05-28T02:25:38.970Z,51.53
2019-05-28T02:28:08.640Z,51.57
2019-05-28T02:30:38.347Z,51.80
2019-05-28T02:33:07.986Z,51.53
2019-05-28T02:35:38.586Z,51.90
2019-05-28T02:38:08.231Z,51.27
2019-05-28T02:40:37.936Z,51.60
2019-05-28T02:43:07.658Z,51.67
2019-05-28T02:45:37.308Z,51.00
2019-05-28T02:48:07.082Z,51.40
2019-05-28T02:50:58.626Z,51.27
2019-05-28T02:53:28.718Z,51.20
2019-05-28T02:55:59.919Z,51.10
2019-05-28T02:58:32.771Z,51.53
2019-05-28T03:01:03.242Z,51.03
2019-05-28T03:03:33.137Z,51.67
2019-05-28T03:06:03.417Z,51.63
2019-05-28T03:08:33.214Z,51.23
2019-05-28T03:11:04.422Z,51.70
2019-05-28T03:13:34.455Z,51.50
2019-05-28T03:16:06.371Z,51.57
2019-05-28T03:18:39.558Z,51.70
2019-05-28T03:21:10.359Z,51.07
2019-05-28T03:23:41.925Z,51.53
2019-05-28T03:26:11.860Z,51.53
2019-05-28T03:28:41.640Z,52.10
2019-05-28T03:31:11.647Z,51.33
2019-05-28T03:33:41.443Z,51.53
2019-05-28T03:36:12.533Z,51.70
2019-05-28T03:38:43.406Z,51.67
2019-05-28T03:41:13.083Z,51.43
2019-05-28T03:43:42.717Z,52.00
2019-05-28T03:46:12.434Z,51.53
2019-05-28T03:48:42.075Z,51.57
2019-05-28T03:51:11.719Z,51.40
2019-05-28T03:53:41.535Z,51.30
2019-05-28T03:56:11.217Z,51.43
2019-05-28T03:58:40.843Z,51.53
2019-05-28T04:01:10.522Z,51.63
2019-05-28T04:03:40.238Z,51.73
2019-05-28T04:06:09.877Z,52.23
2019-05-28T04:08:42.518Z,52.43
2019-05-28T04:11:12.163Z,52.47
2019-05-28T04:13:41.800Z,52.63
2019-05-28T04:16:11.446Z,52.90
2019-05-28T04:18:41.087Z,53.07
2019-05-28T04:21:10.760Z,53.33
2019-05-28T04:23:41.743Z,52.93
2019-05-28T04:26:11.629Z,53.00
2019-05-28T04:28:52.586Z,53.00
2019-05-28T04:31:22.226Z,52.67
2019-05-28T04:33:51.884Z,53.13
2019-05-28T04:36:21.602Z,53.43
2019-05-28T04:38:51.274Z,53.10
2019-05-28T04:41:20.971Z,53.30
2019-05-28T04:43:50.614Z,53.27
2019-05-28T04:46:20.340Z,52.90
2019-05-28T04:48:50.147Z,52.63
2019-05-28T04:51:19.819Z,52.33
2019-05-28T04:53:49.471Z,52.30
2019-05-28T04:56:19.126Z,51.60
2019-05-28T04:58:48.781Z,51.57
2019-05-28T05:01:18.430Z,52.30
2019-05-28T05:03:48.154Z,52.07
2019-05-28T05:06:17.787Z,51.97
2019-05-28T05:08:47.425Z,51.93
2019-05-28T05:11:17.068Z,52.30
2019-05-28T05:13:46.698Z,52.23
2019-05-28T05:16:16.339Z,51.93
2019-05-28T05:18:46.039Z,52.00
2019-05-28T05:21:15.763Z,52.23
2019-05-28T05:23:45.418Z,52.17
2019-05-28T05:26:15.110Z,51.90
2019-05-28T05:28:44.750Z,51.80
2019-05-28T05:31:14.398Z,51.43
2019-05-28T05:33:44.040Z,51.70
2019-05-28T05:36:13.684Z,51.20
2019-05-28T05:38:43.327Z,51.47
2019-05-28T05:41:12.986Z,51.67
2019-05-28T05:43:42.619Z,51.57
2019-05-28T05:46:12.263Z,51.20
2019-05-28T05:48:41.902Z,51.50
2019-05-28T05:51:11.566Z,51.43
2019-05-28T05:53:41.279Z,51.23
2019-05-28T05:56:10.952Z,51.03
2019-05-28T05:58:40.635Z,50.60
2019-05-28T06:01:10.393Z,51.00
2019-05-28T06:03:41.739Z,50.30
2019-05-28T06:06:11.442Z,49.93
2019-05-28T06:08:41.088Z,50.13
2019-05-28T06:11:10.744Z,49.63
2019-05-28T06:13:40.384Z,49.03
2019-05-28T06:16:10.177Z,48.03
2019-05-28T06:18:39.875Z,48.67
2019-05-28T06:21:16.048Z,47.63
2019-05-28T06:23:40.969Z,48.37
2019-05-28T06:26:10.694Z,48.10
2019-05-28T06:28:40.313Z,48.43
2019-05-28T06:31:09.996Z,48.00
2019-05-28T06:33:55.072Z,48.57
2019-05-28T06:36:11.168Z,47.87
2019-05-28T06:38:40.863Z,48.40
2019-05-28T06:41:10.681Z,48.13
2019-05-28T06:43:40.303Z,48.67
2019-05-28T06:46:10.055Z,48.17
2019-05-28T06:48:39.687Z,48.50
2019-05-28T06:51:09.339Z,50.87
2019-05-28T06:53:38.997Z,50.60
2019-05-28T06:56:08.639Z,50.27
2019-05-28T06:58:40.280Z,49.23
2019-05-28T07:01:09.801Z,49.20
2019-05-28T07:03:39.488Z,50.17
2019-05-28T07:06:09.219Z,50.17
2019-05-28T07:08:38.846Z,50.47
2019-05-28T07:11:09.614Z,50.47
2019-05-28T07:13:39.285Z,49.13
2019-05-28T07:16:08.959Z,49.40
2019-05-28T07:18:38.567Z,50.00
2019-05-28T07:21:08.210Z,49.47
2019-05-28T07:23:37.853Z,49.07
2019-05-28T07:26:07.487Z,49.13
2019-05-28T07:28:37.127Z,49.83
2019-05-28T07:31:08.301Z,48.80
2019-05-28T07:33:38.986Z,48.97
2019-05-28T07:36:08.692Z,48.60
2019-05-28T07:38:38.339Z,49.37
2019-05-28T07:41:08.051Z,49.03
2019-05-28T07:43:37.722Z,49.20
2019-05-28T07:46:07.387Z,49.50
2019-05-28T07:48:37.024Z,49.93
2019-05-28T07:51:06.655Z,50.87
2019-05-28T07:53:39.775Z,50.07
2019-05-28T07:56:08.014Z,52.57
2019-05-28T07:58:37.838Z,50.73
2019-05-28T08:01:07.623Z,50.57
2019-05-28T08:03:37.437Z,50.90
2019-05-28T08:06:07.134Z,51.73
2019-05-28T08:08:36.854Z,50.93
2019-05-28T08:11:06.502Z,50.97
2019-05-28T08:13:40.613Z,50.27
2019-05-28T08:16:18.336Z,50.50
2019-05-28T08:18:38.958Z,50.00
2019-05-28T08:21:08.694Z,50.10
2019-05-28T08:23:38.400Z,51.20
2019-05-28T08:26:08.104Z,51.07
2019-05-28T08:28:37.746Z,50.27
2019-05-28T08:31:15.318Z,49.87
2019-05-28T08:33:39.097Z,50.50
2019-05-28T08:36:08.867Z,49.57
2019-05-28T08:38:38.506Z,50.07
2019-05-28T08:41:08.215Z,49.40
2019-05-28T08:43:37.859Z,50.77
2019-05-28T08:46:07.642Z,49.33
2019-05-28T08:48:37.355Z,49.30
2019-05-28T08:51:10.177Z,48.80
2019-05-28T08:53:38.400Z,50.10
2019-05-28T08:56:08.177Z,50.00
2019-05-28T08:58:37.826Z,50.17
2019-05-28T09:01:07.467Z,50.00
2019-05-28T09:03:37.115Z,49.13
2019-05-28T09:06:06.854Z,49.17
2019-05-28T09:08:48.972Z,49.47
2019-05-28T09:11:19.187Z,48.83
2019-05-28T09:13:48.841Z,49.07
2019-05-28T09:16:18.474Z,49.63
2019-05-28T09:18:48.127Z,50.23
2019-05-28T09:21:17.777Z,49.60
2019-05-28T09:23:47.411Z,49.53
2019-05-28T09:26:20.318Z,49.17
2019-05-28T09:28:50.034Z,48.87
2019-05-28T09:31:20.422Z,49.77
2019-05-28T09:33:50.149Z,49.50
2019-05-28T09:36:19.786Z,50.27
2019-05-28T09:38:49.438Z,48.83
2019-05-28T09:41:19.092Z,49.77
2019-05-28T09:43:48.732Z,50.10
2019-05-28T09:46:19.346Z,49.73
2019-05-28T09:48:49.062Z,49.47
2019-05-28T09:51:18.786Z,49.77
2019-05-28T09:53:48.420Z,49.50
2019-05-28T09:56:18.063Z,49.50
2019-05-28T09:58:47.720Z,49.77
2019-05-28T10:01:17.620Z,50.17
2019-05-28T10:03:47.265Z,50.80
2019-05-28T10:06:18.216Z,49.53
2019-05-28T10:08:48.178Z,49.83
2019-05-28T10:11:17.821Z,49.37
2019-05-28T10:13:47.535Z,49.80
2019-05-28T10:16:17.258Z,49.63
2019-05-28T10:18:47.970Z,49.93
2019-05-28T10:21:19.455Z,49.60
2019-05-28T10:23:49.219Z,49.23
2019-05-28T10:26:18.931Z,49.20
2019-05-28T10:28:50.611Z,49.73
2019-05-28T10:31:19.918Z,49.33
2019-05-28T10:33:49.565Z,49.10
2019-05-28T10:36:34.518Z,49.53
2019-05-28T10:38:50.556Z,49.33
2019-05-28T10:41:20.339Z,48.90
2019-05-28T10:43:50.092Z,48.90
2019-05-28T10:46:19.761Z,49.10
2019-05-28T10:48:49.392Z,49.03
2019-05-28T10:51:19.032Z,49.60
2019-05-28T10:53:48.671Z,48.93
2019-05-28T10:56:18.311Z,49.73
2019-05-28T10:58:47.974Z,49.83
2019-05-28T11:01:18.689Z,51.43
2019-05-28T11:03:48.341Z,49.77
2019-05-28T11:06:17.967Z,49.67
2019-05-28T11:08:47.624Z,50.60
2019-05-28T11:11:17.255Z,49.80
2019-05-28T11:13:53.039Z,50.27
2019-05-28T11:16:18.263Z,50.03
2019-05-28T11:18:47.902Z,49.60
2019-05-28T11:21:17.539Z,49.90
2019-05-28T11:23:47.191Z,50.20
2019-05-28T11:26:16.823Z,50.20
2019-05-28T11:28:46.623Z,50.93
2019-05-28T11:31:16.404Z,51.07
2019-05-28T11:33:46.061Z,51.37
2019-05-28T11:36:15.684Z,50.83
2019-05-28T11:38:45.316Z,51.60
2019-05-28T11:41:14.958Z,51.50
2019-05-28T11:43:44.598Z,52.63
2019-05-28T11:46:14.511Z,52.00
2019-05-28T11:48:44.212Z,51.77
2019-05-28T11:51:14.856Z,51.57
2019-05-28T11:53:44.501Z,51.00
2019-05-28T11:56:14.132Z,51.57
2019-05-28T11:58:43.880Z,51.07
2019-05-28T12:01:13.614Z,50.57
2019-05-28T12:03:43.258Z,51.10
2019-05-28T12:06:12.969Z,50.77
2019-05-28T12:08:42.642Z,50.37
2019-05-28T12:11:12.410Z,50.67
2019-05-28T12:13:42.088Z,50.53
2019-05-28T12:16:11.743Z,50.57
2019-05-28T12:18:41.392Z,50.10
2019-05-28T12:21:11.115Z,50.53
2019-05-28T12:23:40.762Z,50.20
2019-05-28T12:26:10.489Z,49.83
2019-05-28T12:28:40.162Z,49.73
2019-05-28T12:31:09.794Z,50.27
2019-05-28T12:33:39.422Z,49.40
2019-05-28T12:36:10.470Z,50.57
2019-05-28T12:38:40.179Z,50.63
2019-05-28T12:41:09.878Z,50.23
2019-05-28T12:43:39.586Z,50.10
2019-05-28T12:46:09.215Z,50.67
2019-05-28T12:48:38.968Z,50.10
2019-05-28T12:51:08.645Z,50.50
2019-05-28T12:53:50.549Z,50.57
2019-05-28T12:56:09.771Z,50.43
2019-05-28T12:58:42.942Z,49.93
2019-05-28T13:01:10.912Z,50.73
2019-05-28T13:03:40.636Z,49.63
2019-05-28T13:06:10.472Z,49.87
2019-05-28T13:08:40.183Z,49.80
2019-05-28T13:11:09.819Z,50.13
2019-05-28T13:13:39.509Z,50.23
2019-05-28T13:16:09.157Z,48.97
2019-05-28T13:18:38.799Z,49.30
2019-05-28T13:21:08.439Z,50.37
2019-05-28T13:23:38.071Z,49.63
2019-05-28T13:26:07.815Z,49.10
2019-05-28T13:28:37.447Z,49.17
2019-05-28T13:31:07.152Z,49.47
2019-05-28T13:33:36.779Z,49.23
2019-05-28T13:36:06.505Z,49.20
2019-05-28T13:38:36.127Z,49.83
2019-05-28T13:41:05.765Z,49.93
2019-05-28T13:43:35.467Z,49.07
2019-05-28T13:46:06.143Z,50.17
2019-05-28T13:48:36.033Z,49.00
2019-05-28T13:51:05.823Z,49.23
2019-05-28T13:53:35.465Z,49.47
2019-05-28T13:56:05.366Z,49.50
2019-05-28T13:58:35.011Z,49.93
2019-05-28T14:01:04.812Z,49.57
2019-05-28T14:03:34.455Z,50.03
2019-05-28T14:06:04.376Z,49.67
2019-05-28T14:08:45.715Z,50.13
2019-05-28T14:11:05.541Z,49.97
2019-05-28T14:13:35.174Z,49.47
2019-05-28T14:16:05.078Z,49.20
2019-05-28T14:18:34.714Z,50.13
2019-05-28T14:21:04.527Z,49.97
2019-05-28T14:23:34.156Z,50.63
2019-05-28T14:26:03.876Z,49.90
2019-05-28T14:28:33.663Z,49.57
2019-05-28T14:31:03.310Z,50.03
2019-05-28T14:33:32.943Z,49.87
2019-05-28T14:36:02.656Z,50.13
2019-05-28T14:38:32.361Z,49.37
2019-05-28T14:41:02.171Z,49.70
2019-05-28T14:43:31.921Z,50.10
2019-05-28T14:46:01.555Z,49.90
2019-05-28T14:48:31.337Z,49.53
2019-05-28T14:51:01.067Z,49.13
2019-05-28T14:53:30.692Z,49.43
2019-05-28T14:56:00.333Z,49.13
2019-05-28T14:58:30.126Z,50.03
2019-05-28T15:00:59.772Z,49.40
2019-05-28T15:03:29.415Z,49.63
2019-05-28T15:05:59.062Z,49.57
2019-05-28T15:08:28.718Z,49.23
2019-05-28T15:10:58.463Z,49.67
2019-05-28T15:13:28.198Z,49.30
2019-05-28T15:15:57.859Z,49.60
2019-05-28T15:18:27.579Z,49.17
2019-05-28T15:20:57.216Z,49.63
2019-05-28T15:23:27.028Z,49.17
2019-05-28T15:25:56.666Z,49.67
2019-05-28T15:28:26.315Z,49.77
2019-05-28T15:30:55.950Z,49.40
2019-05-28T15:33:25.604Z,49.60
2019-05-28T15:35:56.291Z,49.63
2019-05-28T15:38:26.059Z,49.50
2019-05-28T15:40:55.690Z,49.90
2019-05-28T15:43:25.335Z,49.70
2019-05-28T15:45:54.985Z,49.50
2019-05-28T15:48:24.622Z,49.50
2019-05-28T15:50:54.352Z,49.10
2019-05-28T15:53:24.947Z,49.70
2019-05-28T15:55:54.576Z,49.70
2019-05-28T15:58:24.217Z,49.70
2019-05-28T16:00:53.863Z,50.13
2019-05-28T16:03:23.489Z,49.70
2019-05-28T16:05:53.198Z,49.17
2019-05-28T16:08:22.831Z,49.00
2019-05-28T16:10:52.475Z,49.97
2019-05-28T16:13:23.074Z,49.10
2019-05-28T16:15:52.712Z,49.30
2019-05-28T16:18:22.355Z,49.67
2019-05-28T16:20:52.022Z,49.07
2019-05-28T16:23:21.663Z,49.57
2019-05-28T16:25:52.374Z,49.53
2019-05-28T16:28:22.990Z,49.30
2019-05-28T16:31:08.757Z,49.67
2019-05-28T16:33:24.055Z,50.13
2019-05-28T16:35:53.779Z,49.53
2019-05-28T16:38:23.420Z,49.47
2019-05-28T16:40:53.054Z,49.47
2019-05-28T16:43:22.814Z,49.40
2019-05-28T16:45:52.450Z,49.20
2019-05-28T16:48:22.155Z,49.23
2019-05-28T16:50:51.815Z,49.43
2019-05-28T16:53:21.523Z,49.53
2019-05-28T16:55:51.302Z,49.47
2019-05-28T16:58:20.934Z,48.60
2019-05-28T17:00:50.656Z,49.00
2019-05-28T17:03:20.376Z,49.00
2019-05-28T17:05:50.025Z,49.33
2019-05-28T17:08:20.697Z,49.00
2019-05-28T17:10:50.377Z,49.57
2019-05-28T17:13:21.085Z,49.03
2019-05-28T17:15:50.800Z,49.13
2019-05-28T17:18:20.503Z,48.87
2019-05-28T17:20:50.289Z,48.93
2019-05-28T17:23:20.007Z,49.20
2019-05-28T17:25:49.647Z,48.83
2019-05-28T17:28:19.409Z,49.20
2019-05-28T17:30:49.062Z,48.67
2019-05-28T17:33:18.714Z,48.67
2019-05-28T17:35:48.424Z,49.00
2019-05-28T17:38:18.067Z,49.40
2019-05-28T17:40:48.954Z,49.13
2019-05-28T17:43:18.882Z,48.87
2019-05-28T17:45:48.595Z,48.67
2019-05-28T17:48:18.238Z,49.03
2019-05-28T17:50:47.884Z,48.77
2019-05-28T17:53:17.524Z,48.43
2019-05-28T17:55:47.179Z,48.57
2019-05-28T17:58:16.805Z,48.30
2019-05-28T18:00:46.524Z,48.50
2019-05-28T18:03:16.171Z,48.30
2019-05-28T18:05:45.823Z,48.77
2019-05-28T18:08:15.616Z,48.77
2019-05-28T18:10:45.538Z,49.23
2019-05-28T18:13:15.253Z,48.67
2019-05-28T18:15:44.984Z,48.63
2019-05-28T18:18:14.626Z,47.97
2019-05-28T18:20:44.283Z,48.50
2019-05-28T18:23:13.942Z,48.90
2019-05-28T18:25:43.751Z,48.53
2019-05-28T18:28:13.411Z,48.33
2019-05-28T18:30:43.336Z,48.57
2019-05-28T18:33:13.103Z,48.97
2019-05-28T18:35:42.736Z,48.20
2019-05-28T18:38:12.379Z,48.37
2019-05-28T18:40:42.266Z,48.40
2019-05-28T18:43:11.925Z,48.40
2019-05-28T18:45:41.584Z,48.60
2019-05-28T18:48:11.307Z,48.80
2019-05-28T18:50:40.940Z,48.50
2019-05-28T18:53:10.588Z,48.37
2019-05-28T18:55:40.286Z,48.07
2019-05-28T18:58:10.040Z,47.97
2019-05-28T19:00:40.351Z,48.23
2019-05-28T19:03:09.988Z,48.40
2019-05-28T19:05:39.727Z,47.97
2019-05-28T19:08:09.369Z,48.17
2019-05-28T19:10:39.007Z,48.83
2019-05-28T19:13:08.658Z,48.50
2019-05-28T19:15:38.365Z,48.60
2019-05-28T19:18:08.060Z,48.47
2019-05-28T19:20:37.726Z,48.27
2019-05-28T19:23:07.469Z,48.73
2019-05-28T19:25:37.095Z,49.07
2019-05-28T19:28:06.993Z,48.77
2019-05-28T19:30:36.713Z,48.03
2019-05-28T19:33:06.516Z,48.60
2019-05-28T19:35:37.192Z,48.90
2019-05-28T19:38:08.223Z,49.47
2019-05-28T19:40:39.123Z,50.03
2019-05-28T19:43:08.923Z,50.40
2019-05-28T19:45:38.651Z,50.20
2019-05-28T19:48:08.526Z,50.70
2019-05-28T19:50:38.295Z,50.93
2019-05-28T19:53:08.102Z,51.20
2019-05-28T19:55:37.838Z,51.30
2019-05-28T19:58:07.511Z,51.40
2019-05-28T20:00:37.225Z,51.23
2019-05-28T20:03:06.952Z,51.57
2019-05-28T20:05:36.674Z,51.27
2019-05-28T20:08:06.386Z,51.67
2019-05-28T20:10:36.056Z,51.07
2019-05-28T20:13:05.758Z,52.23
2019-05-28T20:15:35.459Z,51.63
2019-05-28T20:18:05.495Z,52.07
2019-05-28T20:20:35.200Z,51.63
2019-05-28T20:23:04.927Z,51.57
2019-05-28T20:25:35.600Z,51.67
2019-05-28T20:28:05.426Z,51.50
2019-05-28T20:30:35.139Z,51.43
2019-05-28T20:33:05.355Z,52.10
2019-05-28T20:35:35.064Z,51.50
2019-05-28T20:38:08.809Z,51.37
2019-05-28T20:40:36.236Z,51.87
2019-05-28T20:43:06.267Z,51.17
2019-05-28T20:45:35.980Z,51.00
2019-05-28T20:48:06.717Z,50.93
2019-05-28T20:50:36.492Z,51.23
2019-05-28T20:53:06.155Z,51.00
2019-05-28T20:55:35.803Z,51.33
2019-05-28T20:58:05.600Z,51.17
2019-05-28T21:00:35.303Z,50.60
2019-05-28T21:03:05.096Z,50.83
2019-05-28T21:05:34.721Z,50.97
2019-05-28T21:08:04.511Z,51.33
2019-05-28T21:10:34.139Z,50.70
2019-05-28T21:13:03.821Z,50.97
2019-05-28T21:15:33.600Z,50.83
2019-05-28T21:18:03.255Z,51.23
2019-05-28T21:20:32.886Z,51.60
2019-05-28T21:23:02.621Z,51.07
2019-05-28T21:25:32.390Z,50.93
2019-05-28T21:28:02.051Z,50.70
2019-05-28T21:30:31.768Z,50.60
2019-05-28T21:33:01.426Z,50.50
2019-05-28T21:35:32.101Z,50.47
2019-05-28T21:38:01.744Z,50.13
2019-05-28T21:40:31.375Z,50.20
2019-05-28T21:43:08.733Z,50.80
2019-05-28T21:45:32.494Z,50.67
2019-05-28T21:48:03.054Z,51.07
2019-05-28T21:50:33.783Z,51.43
2019-05-28T21:53:03.603Z,51.13
2019-05-28T21:55:33.219Z,50.60
2019-05-28T21:58:04.073Z,50.87
2019-05-28T22:00:47.872Z,50.70
2019-05-28T22:03:19.228Z,50.63
2019-05-28T22:05:48.855Z,50.90
2019-05-28T22:08:18.587Z,50.67
2019-05-28T22:10:48.363Z,50.93
2019-05-28T22:13:22.270Z,50.67
2019-05-28T22:15:49.691Z,50.57
2019-05-28T22:18:19.351Z,50.47
2019-05-28T22:20:49.067Z,50.70
2019-05-28T22:23:18.720Z,50.70
2019-05-28T22:25:48.352Z,50.70
2019-05-28T22:28:18.047Z,50.57
2019-05-28T22:30:47.911Z,50.33
2019-05-28T22:33:17.550Z,50.50
2019-05-28T22:35:47.189Z,50.70
2019-05-28T22:38:16.831Z,50.53
2019-05-28T22:40:46.476Z,50.63
2019-05-28T22:43:28.886Z,50.40
2019-05-28T22:45:47.522Z,50.30
2019-05-28T22:48:18.009Z,50.27
2019-05-28T22:50:48.048Z,50.20
2019-05-28T22:53:18.648Z,50.90
2019-05-28T22:55:48.423Z,50.60
2019-05-28T22:58:18.055Z,50.57
2019-05-28T23:00:47.828Z,50.33
2019-05-28T23:03:17.474Z,50.27
2019-05-28T23:05:47.107Z,50.33
2019-05-28T23:08:16.743Z,50.23
2019-05-28T23:10:46.370Z,50.57
2019-05-28T23:13:16.020Z,50.50
2019-05-28T23:15:45.658Z,50.60
2019-05-28T23:18:15.302Z,50.10
2019-05-28T23:20:44.928Z,50.40
2019-05-28T23:23:14.639Z,50.30
2019-05-28T23:25:44.294Z,50.27
2019-05-28T23:28:14.015Z,50.37
2019-05-28T23:30:43.642Z,50.37
2019-05-28T23:33:14.268Z,50.23
2019-05-28T23:35:44.003Z,50.33
2019-05-28T23:38:13.957Z,50.17
2019-05-28T23:40:43.611Z,50.23
2019-05-28T23:43:13.812Z,50.10
2019-05-28T23:45:43.543Z,49.73
2019-05-28T23:48:16.827Z,50.10
2019-05-28T23:50:44.509Z,50.40
2019-05-28T23:53:14.157Z,50.47
2019-05-28T23:55:43.823Z,50.43
2019-05-28T23:58:14.499Z,50.33
